Time;durP1;ratioP1;P1;durP2;ratioP2;P2;SDS_P1;SDS_P2;PMS_P1;PMS_P2;Temp;Humidity;BMP_temperature;BMP_pressure;BME280_temperature;BME280_humidity;BME280_pressure;Samples;Min_cycle;Max_cycle;Signal;HPM_P1;HPM_P2
2023/04/06 00:01:27;;;;;;;7.20;6.30;;;3.00;93.40;;;;;;5025456;28;20198;-62
2023/04/06 00:03:53;;;;;;;10.73;6.50;;;2.90;93.70;;;;;;5026246;28;20501;-62
2023/04/06 00:06:18;;;;;;;7.97;6.63;;;2.80;93.90;;;;;;5025147;28;20187;-62
2023/04/06 00:08:44;;;;;;;7.47;6.67;;;2.70;93.80;;;;;;5028164;28;20186;-62
2023/04/06 00:11:10;;;;;;;7.83;6.80;;;2.80;93.80;;;;;;5026198;28;20182;-62
2023/04/06 00:13:35;;;;;;;6.57;5.83;;;2.90;94.30;;;;;;5025253;28;20714;-62
2023/04/06 00:16:01;;;;;;;7.07;6.37;;;2.60;94.30;;;;;;5025965;28;20183;-62
2023/04/06 00:18:27;;;;;;;9.30;6.53;;;2.80;94.40;;;;;;5021001;28;20445;-62
2023/04/06 00:20:53;;;;;;;10.20;7.37;;;2.20;94.10;;;;;;5026364;28;20837;-62
2023/04/06 00:23:18;;;;;;;8.73;7.03;;;2.80;94.80;;;;;;5022999;28;20179;-62
2023/04/06 00:25:44;;;;;;;15.10;7.47;;;2.80;94.90;;;;;;5026869;28;20269;-62
2023/04/06 00:28:10;;;;;;;8.80;7.90;;;2.70;95.00;;;;;;5024996;28;20197;-62
2023/04/06 00:30:35;;;;;;;8.80;7.20;;;3.00;94.80;;;;;;5025399;28;20373;-61
2023/04/06 00:33:01;;;;;;;9.00;7.37;;;2.90;94.70;;;;;;5026284;28;20210;-61
2023/04/06 00:35:27;;;;;;;7.43;6.70;;;2.30;94.30;;;;;;5029444;28;20218;-62
2023/04/06 00:37:52;;;;;;;8.47;7.10;;;3.00;94.50;;;;;;5028308;28;20592;-62
2023/04/06 00:40:18;;;;;;;7.30;6.50;;;2.80;94.20;;;;;;5030384;28;20632;-62
2023/04/06 00:42:44;;;;;;;6.63;6.03;;;3.00;94.80;;;;;;5028931;28;20285;-62
2023/04/06 00:45:10;;;;;;;9.70;7.67;;;2.80;94.60;;;;;;5029354;28;20183;-62
2023/04/06 00:47:36;;;;;;;7.70;6.63;;;2.90;94.40;;;;;;5030232;28;20450;-62
2023/04/06 00:50:02;;;;;;;9.13;7.10;;;2.90;94.40;;;;;;5032318;28;20189;-62
2023/04/06 00:52:27;;;;;;;9.50;6.80;;;3.00;94.40;;;;;;5030136;28;20210;-62
2023/04/06 00:54:53;;;;;;;8.03;6.80;;;3.30;94.40;;;;;;5028082;28;20466;-62
2023/04/06 00:57:19;;;;;;;7.23;6.53;;;2.90;94.10;;;;;;5025991;28;20274;-62
2023/04/06 00:59:45;;;;;;;8.73;6.35;;;3.00;94.50;;;;;;5027525;28;20194;-62
2023/04/06 01:02:11;;;;;;;8.30;6.63;;;2.70;94.60;;;;;;5029532;28;20672;-63
2023/04/06 01:04:37;;;;;;;8.43;7.07;;;2.90;94.80;;;;;;5025178;28;20198;-64
2023/04/06 01:07:03;;;;;;;8.70;7.10;;;2.80;94.70;;;;;;5031054;28;20199;-63
2023/04/06 01:09:29;;;;;;;10.20;6.77;;;3.30;95.00;;;;;;5028145;28;20304;-63
2023/04/06 01:11:56;;;;;;;7.60;6.78;;;2.20;94.90;;;;;;5028686;28;20962;-62
2023/04/06 01:14:23;;;;;;;8.23;7.10;;;2.40;95.10;;;;;;5028786;28;20603;-62
2023/04/06 01:16:49;;;;;;;13.80;7.45;;;2.90;95.40;;;;;;5028451;28;20278;-62
2023/04/06 01:19:14;;;;;;;8.63;7.03;;;2.80;95.50;;;;;;5026937;28;21566;-62
2023/04/06 01:21:40;;;;;;;9.73;7.33;;;2.70;95.60;;;;;;5023836;28;20202;-62
2023/04/06 01:24:07;;;;;;;9.15;7.13;;;2.90;95.60;;;;;;5031941;28;20227;-63
2023/04/06 01:26:35;;;;;;;7.60;6.80;;;2.60;95.50;;;;;;5029109;28;20240;-62
2023/04/06 01:29:01;;;;;;;8.15;6.50;;;2.70;95.80;;;;;;5031116;28;20208;-63
2023/04/06 01:31:27;;;;;;;9.52;6.47;;;2.70;95.90;;;;;;5029097;28;20207;-61
2023/04/06 01:33:53;;;;;;;8.37;6.77;;;2.80;96.10;;;;;;5028715;28;20217;-62
2023/04/06 01:36:19;;;;;;;8.10;7.03;;;2.40;96.00;;;;;;5027896;28;20196;-61
2023/04/06 01:38:45;;;;;;;8.27;7.25;;;2.40;96.10;;;;;;5027979;28;20194;-62
2023/04/06 01:41:11;;;;;;;8.80;7.20;;;1.70;96.00;;;;;;5027443;28;20545;-62
2023/04/06 01:43:36;;;;;;;9.03;7.20;;;2.20;96.80;;;;;;5030475;28;20673;-61
2023/04/06 01:46:02;;;;;;;8.00;7.17;;;2.80;96.30;;;;;;5030732;28;20190;-61
2023/04/06 01:48:28;;;;;;;8.95;6.40;;;2.70;95.80;;;;;;5027335;28;20186;-61
2023/04/06 01:50:54;;;;;;;7.57;6.23;;;2.40;95.10;;;;;;5028661;28;20688;-61
2023/04/06 01:53:20;;;;;;;8.13;6.65;;;2.60;95.70;;;;;;5023437;28;20248;-61
2023/04/06 01:55:45;;;;;;;8.10;7.13;;;2.60;95.90;;;;;;5028136;28;20188;-61
2023/04/06 01:58:12;;;;;;;9.63;7.00;;;2.60;95.90;;;;;;5024933;28;20183;-61
2023/04/06 02:00:38;;;;;;;8.02;7.28;;;2.00;95.20;;;;;;5029492;28;20181;-61
2023/04/06 02:03:03;;;;;;;8.50;7.70;;;2.60;95.50;;;;;;5025712;28;20212;-62
2023/04/06 02:05:31;;;;;;;9.17;7.30;;;2.30;95.80;;;;;;5027785;28;20758;-61
2023/04/06 02:07:56;;;;;;;9.32;7.50;;;2.80;96.30;;;;;;5029322;28;20214;-63
2023/04/06 02:10:22;;;;;;;9.70;7.40;;;2.90;96.40;;;;;;5030922;28;20241;-61
2023/04/06 02:12:48;;;;;;;8.77;7.40;;;2.30;96.30;;;;;;5027684;28;20202;-61
2023/04/06 02:15:14;;;;;;;7.70;7.00;;;2.40;96.60;;;;;;5028288;28;20206;-61
2023/04/06 02:17:41;;;;;;;8.07;7.05;;;2.50;96.70;;;;;;5028813;28;20179;-61
2023/04/06 02:20:07;;;;;;;9.20;8.18;;;2.30;96.70;;;;;;5028640;28;20197;-61
2023/04/06 02:22:33;;;;;;;12.63;7.65;;;2.40;96.90;;;;;;5028185;28;20206;-61
2023/04/06 02:24:59;;;;;;;10.85;7.00;;;2.30;97.00;;;;;;5029812;28;20288;-61
2023/04/06 02:27:25;;;;;;;8.07;7.23;;;2.20;97.10;;;;;;5028908;28;20284;-63
2023/04/06 02:29:50;;;;;;;8.50;7.40;;;1.50;97.10;;;;;;5029236;28;20702;-63
2023/04/06 02:32:16;;;;;;;8.70;7.90;;;2.70;97.60;;;;;;5029175;28;21264;-62
2023/04/06 02:34:41;;;;;;;9.13;7.40;;;2.20;97.20;;;;;;5027768;28;20268;-62
2023/04/06 02:37:07;;;;;;;9.70;7.27;;;2.20;97.40;;;;;;5027785;28;20202;-62
2023/04/06 02:39:33;;;;;;;9.03;7.47;;;1.60;97.00;;;;;;5026568;28;20274;-62
2023/04/06 02:41:58;;;;;;;8.13;6.80;;;2.10;97.80;;;;;;5024231;28;20219;-62
2023/04/06 02:44:24;;;;;;;9.77;7.73;;;1.70;97.90;;;;;;5027432;28;20334;-63
2023/04/06 02:46:50;;;;;;;10.13;7.37;;;2.20;97.70;;;;;;5025383;28;20183;-62
2023/04/06 02:49:16;;;;;;;9.60;7.75;;;2.20;97.70;;;;;;5027044;28;20233;-62
2023/04/06 02:51:41;;;;;;;8.30;7.40;;;2.50;98.00;;;;;;5029045;28;20226;-62
2023/04/06 02:54:07;;;;;;;10.37;7.80;;;1.80;97.90;;;;;;5029239;28;20213;-62
2023/04/06 02:56:33;;;;;;;8.47;7.50;;;2.10;98.10;;;;;;5024142;28;20186;-62
2023/04/06 02:58:58;;;;;;;8.97;7.70;;;1.40;98.10;;;;;;5029325;28;20201;-62
2023/04/06 03:01:24;;;;;;;9.23;7.10;;;1.90;98.30;;;;;;5024398;28;20747;-62
2023/04/06 03:03:49;;;;;;;10.63;7.50;;;1.90;98.20;;;;;;5028801;28;20185;-62
2023/04/06 03:06:15;;;;;;;11.30;8.30;;;1.60;98.30;;;;;;5023753;28;20665;-62
2023/04/06 03:08:41;;;;;;;9.20;8.30;;;2.00;98.30;;;;;;5028554;28;20228;-62
2023/04/06 03:11:06;;;;;;;9.40;7.70;;;2.10;98.20;;;;;;5025875;28;20194;-62
2023/04/06 03:13:32;;;;;;;10.40;7.80;;;1.30;98.30;;;;;;5024909;28;20197;-62
2023/04/06 03:15:57;;;;;;;10.73;8.10;;;1.30;98.60;;;;;;5028946;28;20182;-62
2023/04/06 03:18:25;;;;;;;10.23;8.63;;;1.90;98.90;;;;;;5024560;28;20194;-62
2023/04/06 03:20:53;;;;;;;11.15;9.05;;;1.40;98.80;;;;;;5028191;28;20189;-62
2023/04/06 03:23:20;;;;;;;9.40;8.10;;;1.80;99.10;;;;;;5030498;28;20187;-62
2023/04/06 03:25:46;;;;;;;9.90;8.85;;;1.50;99.10;;;;;;5028698;28;20269;-62
2023/04/06 03:28:12;;;;;;;8.97;8.10;;;1.90;99.20;;;;;;5028183;28;20766;-62
2023/04/06 03:30:37;;;;;;;10.20;8.30;;;1.40;99.40;;;;;;5028991;28;20437;-62
2023/04/06 03:33:03;;;;;;;9.13;7.90;;;1.90;99.70;;;;;;5025359;28;20672;-62
2023/04/06 03:35:29;;;;;;;12.20;8.60;;;1.70;99.70;;;;;;5024289;28;20682;-62
2023/04/06 03:37:55;;;;;;;12.17;8.60;;;1.80;99.50;;;;;;5026653;28;20472;-62
2023/04/06 03:40:20;;;;;;;8.55;7.63;;;2.00;99.30;;;;;;5027107;28;20190;-62
2023/04/06 03:42:46;;;;;;;8.53;7.50;;;1.90;99.10;;;;;;5024076;28;20198;-62
2023/04/06 03:45:15;;;;;;;9.27;7.73;;;2.10;99.10;;;;;;5027659;28;20234;-62
2023/04/06 03:47:40;;;;;;;10.00;8.38;;;2.10;98.60;;;;;;5024985;28;20182;-62
2023/04/06 03:50:06;;;;;;;9.57;7.83;;;2.10;98.90;;;;;;5028038;28;20194;-62
2023/04/06 03:52:32;;;;;;;11.65;9.40;;;2.20;98.70;;;;;;5025768;28;20259;-62
2023/04/06 03:54:58;;;;;;;13.43;8.73;;;1.90;98.60;;;;;;5028408;28;20202;-62
2023/04/06 03:57:23;;;;;;;9.90;8.33;;;1.80;98.30;;;;;;5027006;28;20300;-62
2023/04/06 03:59:49;;;;;;;10.20;7.80;;;1.90;98.60;;;;;;5026320;28;20257;-62
2023/04/06 04:02:14;;;;;;;9.37;8.20;;;2.20;99.40;;;;;;5024222;28;20202;-62
2023/04/06 04:04:40;;;;;;;12.20;8.70;;;2.20;99.00;;;;;;5026944;28;20244;-62
2023/04/06 04:07:06;;;;;;;10.23;7.80;;;2.10;98.80;;;;;;5024183;28;20198;-62
2023/04/06 04:09:31;;;;;;;11.70;8.83;;;2.10;98.80;;;;;;5024571;28;20560;-62
2023/04/06 04:11:57;;;;;;;10.87;7.80;;;1.80;98.80;;;;;;5026108;28;20202;-62
2023/04/06 04:14:22;;;;;;;8.70;7.70;;;1.30;98.80;;;;;;5026649;28;20220;-62
2023/04/06 04:16:48;;;;;;;12.30;8.70;;;1.80;99.30;;;;;;5025757;28;20225;-62
2023/04/06 04:19:14;;;;;;;10.63;8.40;;;1.70;99.30;;;;;;5024346;28;20603;-63
2023/04/06 04:21:46;;;;;;;8.43;7.63;;;1.80;99.70;;;;;;5027895;28;20276;-62
2023/04/06 04:24:13;;;;;;;12.20;7.93;;;1.50;99.70;;;;;;5023852;28;20241;-65
2023/04/06 04:26:39;;;;;;;8.73;7.80;;;1.50;99.90;;;;;;5025412;28;20225;-62
2023/04/06 04:29:06;;;;;;;16.08;9.10;;;1.90;99.90;;;;;;5025299;28;20248;-61
2023/04/06 04:31:31;;;;;;;10.38;8.52;;;1.70;99.90;;;;;;5024357;28;20217;-62
2023/04/06 04:33:59;;;;;;;10.20;8.23;;;1.80;99.90;;;;;;5023890;28;20210;-62
2023/04/06 04:36:25;;;;;;;10.43;7.95;;;1.60;99.90;;;;;;5021445;28;20175;-62
2023/04/06 04:38:51;;;;;;;15.85;9.30;;;2.10;99.90;;;;;;5025021;28;20184;-62
2023/04/06 04:41:17;;;;;;;11.00;8.25;;;1.60;99.90;;;;;;5020623;28;20283;-63
2023/04/06 04:43:43;;;;;;;14.40;9.43;;;1.30;99.90;;;;;;5022329;28;20186;-62
2023/04/06 04:46:09;;;;;;;11.82;8.20;;;1.70;99.90;;;;;;5025865;28;20449;-62
2023/04/06 04:48:35;;;;;;;12.40;9.73;;;1.90;99.90;;;;;;5021484;28;20687;-62
2023/04/06 04:51:01;;;;;;;10.07;9.00;;;1.70;99.90;;;;;;5023858;28;20245;-62
2023/04/06 04:53:27;;;;;;;10.63;8.15;;;1.70;99.90;;;;;;5023174;28;20664;-62
2023/04/06 04:55:52;;;;;;;12.53;8.77;;;1.60;99.90;;;;;;5022703;28;20202;-62
2023/04/06 04:58:19;;;;;;;13.43;9.60;;;1.80;99.90;;;;;;5021216;28;20233;-62
2023/04/06 05:00:45;;;;;;;10.50;8.80;;;2.00;99.90;;;;;;5025061;28;20183;-62
2023/04/06 05:03:23;;;;;;;11.13;9.70;;;1.90;99.90;;;;;;5013717;28;20205;-62
2023/04/06 05:05:49;;;;;;;11.95;9.52;;;2.00;99.90;;;;;;5024573;28;20183;-62
2023/04/06 05:08:15;;;;;;;12.23;9.30;;;1.30;99.80;;;;;;5022868;28;20530;-62
2023/04/06 05:10:41;;;;;;;11.25;8.45;;;1.90;99.90;;;;;;5023831;28;20449;-62
2023/04/06 05:13:07;;;;;;;11.73;9.05;;;1.80;99.60;;;;;;5023146;28;20238;-63
2023/04/06 05:15:34;;;;;;;11.00;9.27;;;1.90;99.60;;;;;;5024351;28;20210;-62
2023/04/06 05:18:00;;;;;;;9.88;8.73;;;1.90;99.80;;;;;;5025461;28;20440;-62
2023/04/06 05:20:26;;;;;;;10.25;8.50;;;1.70;99.40;;;;;;5027323;28;20195;-63
2023/04/06 05:22:52;;;;;;;10.40;9.18;;;2.00;99.40;;;;;;5026506;28;20704;-62
2023/04/06 05:25:18;;;;;;;12.00;9.13;;;1.90;99.40;;;;;;5026144;28;20237;-62
2023/04/06 05:27:43;;;;;;;10.93;8.20;;;2.00;99.10;;;;;;5020938;28;20186;-62
2023/04/06 05:30:09;;;;;;;12.63;8.10;;;2.10;99.60;;;;;;5022126;28;20202;-63
2023/04/06 05:32:35;;;;;;;12.10;10.17;;;1.90;98.90;;;;;;5024007;28;20261;-62
2023/04/06 05:35:01;;;;;;;10.90;8.90;;;2.20;99.10;;;;;;5028286;28;20469;-62
2023/04/06 05:37:26;;;;;;;12.40;9.60;;;1.80;99.10;;;;;;5029457;28;20483;-62
2023/04/06 05:39:52;;;;;;;12.70;10.00;;;2.30;99.00;;;;;;5025912;28;20186;-62
2023/04/06 05:42:17;;;;;;;13.47;9.80;;;2.50;99.60;;;;;;5023460;28;20218;-65
2023/04/06 05:44:43;;;;;;;12.10;9.63;;;2.60;99.60;;;;;;5029680;28;20191;-61
2023/04/06 05:47:09;;;;;;;14.33;8.70;;;2.00;98.80;;;;;;5025133;28;20675;-62
2023/04/06 05:49:35;;;;;;;17.40;9.50;;;2.70;98.30;;;;;;5027839;28;20278;-63
2023/04/06 05:52:00;;;;;;;13.63;9.37;;;3.00;97.90;;;;;;5028970;28;20249;-62
2023/04/06 05:54:26;;;;;;;13.60;9.20;;;2.90;97.20;;;;;;5028184;28;20226;-62
2023/04/06 05:56:52;;;;;;;10.00;9.00;;;3.00;97.30;;;;;;5026475;28;20352;-62
2023/04/06 05:59:18;;;;;;;11.13;9.73;;;3.20;97.00;;;;;;5028344;28;20724;-62
2023/04/06 06:01:43;;;;;;;14.10;9.07;;;3.10;96.40;;;;;;5027946;28;20216;-62
2023/04/06 06:04:09;;;;;;;11.43;9.07;;;3.20;96.50;;;;;;5026215;28;20674;-62
2023/04/06 06:06:35;;;;;;;12.30;10.17;;;3.40;96.70;;;;;;5026181;28;20454;-62
2023/04/06 06:09:03;;;;;;;20.73;14.88;;;3.30;96.30;;;;;;5025736;28;20504;-62
2023/04/06 06:11:29;;;;;;;14.73;10.25;;;3.70;96.20;;;;;;5024528;28;20297;-62
2023/04/06 06:13:55;;;;;;;12.32;8.95;;;3.80;96.00;;;;;;5025416;28;20574;-62
2023/04/06 06:16:21;;;;;;;37.67;12.50;;;3.40;95.30;;;;;;5025876;28;20184;-63
2023/04/06 06:18:46;;;;;;;23.25;9.73;;;4.00;95.20;;;;;;5025093;28;20659;-65
2023/04/06 06:21:12;;;;;;;10.50;8.80;;;4.60;93.70;;;;;;5012572;28;20189;-63
2023/04/06 06:23:38;;;;;;;16.07;10.00;;;5.00;94.30;;;;;;5022722;28;20640;-64
2023/04/06 06:26:04;;;;;;;10.68;8.60;;;4.70;93.50;;;;;;5024158;28;20189;-65
2023/04/06 06:28:30;;;;;;;10.93;8.70;;;5.00;95.20;;;;;;5021934;28;20262;-65
2023/04/06 06:30:56;;;;;;;12.07;9.40;;;5.40;94.20;;;;;;5025272;28;20437;-67
2023/04/06 06:33:22;;;;;;;18.93;9.60;;;5.90;94.70;;;;;;5027587;28;20182;-66
2023/04/06 06:35:47;;;;;;;10.70;9.60;;;6.10;93.10;;;;;;5024241;28;20456;-63
2023/04/06 06:38:13;;;;;;;11.50;9.43;;;6.70;93.20;;;;;;5026677;28;20206;-63
2023/04/06 06:40:41;;;;;;;10.33;8.70;;;6.80;92.70;;;;;;5025381;28;20186;-63
2023/04/06 06:43:06;;;;;;;10.00;8.90;;;7.50;91.30;;;;;;5022330;28;20199;-63
2023/04/06 06:45:32;;;;;;;12.27;9.90;;;7.00;88.00;;;;;;5022101;28;20193;-69
2023/04/06 06:47:58;;;;;;;10.80;9.70;;;8.40;88.90;;;;;;5022751;28;20190;-67
2023/04/06 06:50:24;;;;;;;11.43;10.33;;;7.80;84.90;;;;;;5024831;28;20924;-67
2023/04/06 06:52:49;;;;;;;10.20;8.70;;;8.60;86.60;;;;;;5025111;28;20643;-67
2023/04/06 06:55:15;;;;;;;18.30;9.57;;;8.90;83.80;;;;;;5021624;28;20216;-67
2023/04/06 06:57:42;;;;;;;11.27;9.00;;;9.20;78.90;;;;;;5021202;28;20262;-67
2023/04/06 07:00:08;;;;;;;13.38;9.23;;;9.50;76.60;;;;;;5026085;28;20193;-66
2023/04/06 07:02:35;;;;;;;10.98;9.13;;;10.00;74.40;;;;;;5027578;28;20630;-68
2023/04/06 07:05:01;;;;;;;14.25;9.80;;;10.10;70.90;;;;;;5028705;28;20221;-66
2023/04/06 07:07:27;;;;;;;12.68;10.02;;;11.30;70.30;;;;;;5023361;28;20197;-67
2023/04/06 07:09:52;;;;;;;11.13;10.03;;;13.40;67.00;;;;;;5026607;28;20206;-66
2023/04/06 07:12:18;;;;;;;10.00;8.83;;;14.90;59.30;;;;;;5024381;28;20210;-67
2023/04/06 07:14:44;;;;;;;10.57;9.47;;;15.70;56.40;;;;;;5022726;28;20688;-68
2023/04/06 07:17:10;;;;;;;12.40;10.03;;;17.60;52.80;;;;;;5024727;28;20643;-68
2023/04/06 07:19:35;;;;;;;11.30;10.13;;;19.20;49.20;;;;;;5021118;28;20204;-68
2023/04/06 07:22:02;;;;;;;11.73;10.50;;;19.20;45.10;;;;;;5023886;28;20475;-68
2023/04/06 07:24:27;;;;;;;12.53;11.43;;;20.50;42.80;;;;;;5025010;28;20182;-67
2023/04/06 07:26:53;;;;;;;13.00;11.63;;;21.50;41.40;;;;;;5023177;28;20449;-67
2023/04/06 07:29:19;;;;;;;12.67;11.27;;;22.40;40.90;;;;;;5026205;28;20560;-66
2023/04/06 07:31:44;;;;;;;15.50;13.30;;;22.90;39.10;;;;;;5027716;28;20211;-68
2023/04/06 07:34:10;;;;;;;12.83;11.73;;;23.30;37.70;;;;;;5026637;28;20244;-68
2023/04/06 07:36:36;;;;;;;28.13;25.23;;;23.30;35.80;;;;;;5021792;28;20195;-66
2023/04/06 07:39:01;;;;;;;13.40;12.07;;;23.80;35.20;;;;;;5027777;28;20212;-65
2023/04/06 07:41:27;;;;;;;14.67;12.83;;;23.80;36.10;;;;;;5025835;28;20234;-66
2023/04/06 07:43:53;;;;;;;13.70;11.77;;;24.10;35.10;;;;;;5024022;28;20259;-67
2023/04/06 07:46:18;;;;;;;12.50;11.30;;;24.20;34.70;;;;;;5025529;28;20282;-66
2023/04/06 07:48:44;;;;;;;13.40;12.10;;;23.70;33.40;;;;;;5027214;28;20187;-65
2023/04/06 07:51:13;;;;;;;14.50;13.20;;;24.10;34.30;;;;;;5022016;28;20222;-65
2023/04/06 07:53:39;;;;;;;13.10;11.90;;;24.00;33.80;;;;;;5022963;28;20187;-65
2023/04/06 07:56:05;;;;;;;14.57;13.37;;;23.40;34.20;;;;;;5028267;28;20438;-65
2023/04/06 07:58:31;;;;;;;13.13;11.90;;;23.60;34.40;;;;;;5028057;28;20206;-65
2023/04/06 08:00:57;;;;;;;12.67;11.43;;;23.00;34.00;;;;;;5019286;28;20504;-65
2023/04/06 08:03:25;;;;;;;13.30;12.00;;;22.80;34.70;;;;;;5024704;28;20522;-65
2023/04/06 08:05:52;;;;;;;12.40;11.20;;;23.20;34.00;;;;;;5025472;28;20488;-65
2023/04/06 08:08:18;;;;;;;14.07;12.77;;;23.80;34.10;;;;;;5023524;28;20492;-64
2023/04/06 08:10:44;;;;;;;13.47;12.17;;;23.40;33.60;;;;;;5021814;28;20473;-67
2023/04/06 08:13:09;;;;;;;14.20;12.70;;;23.10;34.20;;;;;;5023273;28;20453;-64
2023/04/06 08:15:35;;;;;;;14.77;13.20;;;23.70;34.60;;;;;;5023752;28;20276;-65
2023/04/06 08:18:01;;;;;;;14.27;12.87;;;24.00;34.10;;;;;;5024970;28;20442;-64
2023/04/06 08:20:26;;;;;;;13.43;12.20;;;23.50;33.90;;;;;;5019454;28;20202;-64
2023/04/06 08:22:52;;;;;;;13.80;12.57;;;23.40;34.20;;;;;;5022345;28;20200;-65
2023/04/06 08:25:18;;;;;;;13.57;12.40;;;23.50;34.00;;;;;;5027116;28;20195;-65
2023/04/06 08:27:43;;;;;;;13.33;11.90;;;23.40;33.50;;;;;;5024755;28;20306;-65
2023/04/06 08:30:09;;;;;;;13.27;12.07;;;23.90;33.50;;;;;;5022699;28;20191;-65
2023/04/06 08:32:35;;;;;;;13.90;12.37;;;23.80;33.60;;;;;;5022307;28;20196;-64
2023/04/06 08:35:01;;;;;;;12.90;11.70;;;23.90;33.10;;;;;;5014288;28;20466;-64
2023/04/06 08:37:27;;;;;;;12.83;11.63;;;23.50;33.00;;;;;;5023151;28;20599;-65
2023/04/06 08:39:52;;;;;;;13.40;12.13;;;23.80;33.00;;;;;;5023309;28;20192;-65
2023/04/06 08:42:24;;;;;;;14.67;13.33;;;23.20;32.90;;;;;;5025206;28;20219;-64
2023/04/06 08:44:52;;;;;;;13.30;11.87;;;22.60;33.90;;;;;;5023565;28;20258;-65
2023/04/06 08:47:18;;;;;;;14.30;11.93;;;22.60;33.80;;;;;;5023561;28;20476;-65
2023/04/06 08:49:45;;;;;;;12.40;11.27;;;22.80;33.80;;;;;;5018660;28;20989;-65
2023/04/06 08:52:11;;;;;;;15.23;13.40;;;22.50;33.80;;;;;;5024538;28;20479;-65
2023/04/06 08:54:37;;;;;;;12.73;11.43;;;22.40;34.20;;;;;;5026924;28;20479;-65
2023/04/06 08:57:04;;;;;;;12.20;11.17;;;22.40;33.90;;;;;;5029496;28;20531;-65
2023/04/06 08:59:30;;;;;;;12.60;11.40;;;22.10;33.50;;;;;;5025122;28;20968;-64
2023/04/06 09:01:56;;;;;;;13.37;12.07;;;21.60;33.70;;;;;;5028833;28;20464;-65
2023/04/06 09:04:22;;;;;;;15.33;12.87;;;21.00;34.80;;;;;;5028452;28;20518;-65
2023/04/06 09:06:47;;;;;;;12.60;11.50;;;20.90;35.30;;;;;;5029349;28;20452;-65
2023/04/06 09:09:13;;;;;;;12.17;11.07;;;21.60;35.30;;;;;;5027504;28;20285;-64
2023/04/06 09:11:49;;;;;;;13.40;12.10;;;22.20;34.00;;;;;;5025192;28;20206;-65
2023/04/06 09:14:16;;;;;;;12.13;11.03;;;22.40;33.00;;;;;;5031078;28;20214;-64
2023/04/06 09:16:44;;;;;;;11.40;10.20;;;22.00;33.40;;;;;;5029110;28;20448;-64
2023/04/06 09:19:10;;;;;;;11.93;10.80;;;22.00;33.10;;;;;;5024731;28;20456;-64
2023/04/06 09:21:37;;;;;;;12.10;11.00;;;21.60;32.80;;;;;;5025989;28;20461;-64
2023/04/06 09:24:03;;;;;;;12.30;11.10;;;21.60;33.20;;;;;;5027751;28;20447;-64
2023/04/06 09:26:29;;;;;;;12.05;10.82;;;21.30;33.30;;;;;;5025903;28;20502;-64
2023/04/06 09:28:59;;;;;;;10.83;9.73;;;20.60;34.30;;;;;;5026232;28;20619;-63
2023/04/06 09:31:29;;;;;;;11.38;10.27;;;20.50;35.10;;;;;;5026258;28;20968;-63
2023/04/06 09:33:56;;;;;;;11.00;10.00;;;20.30;34.20;;;;;;5027180;28;20206;-63
2023/04/06 09:36:40;;;;;;;11.40;10.20;;;20.00;34.40;;;;;;5027472;28;20529;-63
2023/04/06 09:39:06;;;;;;;12.13;10.85;;;18.70;34.90;;;;;;5025776;28;20186;-63
2023/04/06 09:41:33;;;;;;;11.63;10.43;;;18.50;35.70;;;;;;5027396;28;20213;-63
2023/04/06 09:44:07;;;;;;;12.32;11.13;;;18.10;37.30;;;;;;5027651;28;20480;-63
2023/04/06 09:46:38;;;;;;;12.18;10.93;;;20.00;36.80;;;;;;5027596;28;20682;-63
2023/04/06 09:49:05;;;;;;;12.27;11.07;;;19.30;35.20;;;;;;5025479;28;20277;-63
2023/04/06 09:51:36;;;;;;;11.88;9.80;;;19.50;34.80;;;;;;5029082;28;20510;-64
2023/04/06 09:54:04;;;;;;;12.53;11.13;;;19.60;34.30;;;;;;5028547;28;20202;-64
2023/04/06 09:56:39;;;;;;;11.30;10.20;;;20.60;35.00;;;;;;5019061;28;20499;-64
2023/04/06 09:59:11;;;;;;;11.07;9.77;;;21.20;33.10;;;;;;5020836;28;20626;-64
2023/04/06 10:01:37;;;;;;;9.15;8.35;;;19.70;32.30;;;;;;5023570;28;20457;-64
2023/04/06 10:04:18;;;;;;;8.30;7.60;;;20.10;31.30;;;;;;5026606;28;20213;-64
2023/04/06 10:06:47;;;;;;;9.57;8.60;;;20.40;30.20;;;;;;5026848;28;20988;-65
2023/04/06 10:09:14;;;;;;;9.80;8.90;;;20.40;30.80;;;;;;5027870;28;20441;-64
2023/04/06 10:11:41;;;;;;;9.43;8.48;;;20.10;30.00;;;;;;5028773;28;20289;-64
2023/04/06 10:14:07;;;;;;;9.07;8.27;;;19.60;30.90;;;;;;5025700;28;20229;-64
2023/04/06 10:16:32;;;;;;;8.60;7.80;;;19.80;31.20;;;;;;5027811;28;20565;-64
2023/04/06 10:19:24;;;;;;;7.83;7.17;;;19.60;30.90;;;;;;5026930;28;20448;-64
2023/04/06 10:21:54;;;;;;;8.85;7.95;;;19.30;31.30;;;;;;5023662;28;20578;-64
2023/04/06 10:24:20;;;;;;;10.15;8.10;;;19.30;32.10;;;;;;5026610;28;20183;-64
2023/04/06 10:27:01;;;;;;;8.83;7.97;;;19.50;31.80;;;;;;5024141;28;20223;-65
2023/04/06 10:29:27;;;;;;;8.38;7.68;;;19.30;31.20;;;;;;5027751;28;20194;-64
2023/04/06 10:31:53;;;;;;;8.27;7.47;;;20.00;30.40;;;;;;5024798;28;20205;-64
2023/04/06 10:34:18;;;;;;;7.90;7.20;;;19.80;29.80;;;;;;5025552;28;20210;-65
2023/04/06 10:36:44;;;;;;;8.43;7.63;;;20.20;30.00;;;;;;5023214;28;20256;-63
2023/04/06 10:39:10;;;;;;;7.57;6.80;;;20.80;29.80;;;;;;5026256;28;20510;-65
2023/04/06 10:41:47;;;;;;;10.20;7.40;;;20.70;29.60;;;;;;5025371;28;20325;-65
2023/04/06 10:44:23;;;;;;;8.05;7.30;;;20.50;29.80;;;;;;5025214;28;20259;-64
2023/04/06 10:46:54;;;;;;;9.07;8.27;;;19.40;30.30;;;;;;5026825;28;20268;-64
2023/04/06 10:49:20;;;;;;;9.95;8.77;;;18.90;30.90;;;;;;5027704;28;20232;-64
2023/04/06 10:51:54;;;;;;;8.43;7.63;;;18.80;31.70;;;;;;5025507;28;20604;-64
2023/04/06 10:54:25;;;;;;;9.10;8.30;;;19.10;30.80;;;;;;5026988;28;20205;-64
2023/04/06 10:56:51;;;;;;;8.20;7.50;;;18.60;30.60;;;;;;5024487;28;20265;-64
2023/04/06 10:59:24;;;;;;;7.73;7.03;;;18.30;31.40;;;;;;5028832;28;20277;-65
2023/04/06 11:01:50;;;;;;;9.85;7.63;;;18.40;31.40;;;;;;5028528;28;20518;-64
2023/04/06 11:04:17;;;;;;;7.77;6.83;;;18.10;31.20;;;;;;5027916;28;20190;-63
2023/04/06 11:06:47;;;;;;;8.25;6.75;;;17.70;31.60;;;;;;5024149;28;20257;-63
2023/04/06 11:09:24;;;;;;;8.15;7.45;;;17.40;32.00;;;;;;5025042;28;20206;-63
2023/04/06 11:11:49;;;;;;;7.95;7.25;;;17.90;32.20;;;;;;5024706;28;20363;-64
2023/04/06 11:14:15;;;;;;;8.67;7.80;;;17.90;32.60;;;;;;5025895;28;20305;-64
2023/04/06 11:16:41;;;;;;;7.80;7.03;;;17.90;32.20;;;;;;5024858;28;20178;-64
2023/04/06 11:19:07;;;;;;;11.18;9.98;;;17.70;32.20;;;;;;5027223;28;20527;-64
2023/04/06 11:21:46;;;;;;;8.30;7.55;;;18.60;32.70;;;;;;5023609;28;20741;-64
2023/04/06 11:24:19;;;;;;;8.00;7.20;;;18.50;31.60;;;;;;5025171;28;20324;-64
2023/04/06 11:26:48;;;;;;;7.90;7.15;;;18.30;32.50;;;;;;5022773;28;20182;-63
2023/04/06 11:29:16;;;;;;;8.18;7.45;;;18.20;32.50;;;;;;5025634;28;20647;-63
2023/04/06 11:31:49;;;;;;;7.72;6.97;;;18.20;33.00;;;;;;5023313;28;20214;-64
2023/04/06 11:34:19;;;;;;;8.80;7.97;;;18.50;32.00;;;;;;5025789;28;20210;-64
2023/04/06 11:36:46;;;;;;;9.55;8.65;;;18.50;31.40;;;;;;5023140;28;20239;-64
2023/04/06 11:39:17;;;;;;;7.90;7.10;;;18.40;31.40;;;;;;5027531;28;20559;-63
2023/04/06 11:41:51;;;;;;;7.13;6.35;;;18.00;31.60;;;;;;5024299;28;20587;-63
2023/04/06 11:44:49;;;;;;;7.88;7.07;;;18.10;32.10;;;;;;5028209;28;20191;-64
2023/04/06 11:47:15;;;;;;;9.02;7.30;;;18.20;31.80;;;;;;5024208;28;20194;-63
2023/04/06 11:49:44;;;;;;;7.68;6.97;;;18.50;31.70;;;;;;5024781;28;20329;-63
2023/04/06 11:52:22;;;;;;;8.52;7.18;;;18.10;31.40;;;;;;5022019;28;20234;-64
2023/04/06 11:54:50;;;;;;;7.70;6.88;;;18.00;31.00;;;;;;5025026;28;20355;-64
2023/04/06 11:57:18;;;;;;;7.95;7.25;;;18.10;31.50;;;;;;5021202;28;20233;-64
2023/04/06 11:59:44;;;;;;;6.80;6.20;;;18.20;31.50;;;;;;5025909;28;20174;-64
2023/04/06 12:02:10;;;;;;;7.70;7.00;;;18.70;31.30;;;;;;5023797;28;20206;-64
2023/04/06 12:04:36;;;;;;;7.57;6.90;;;18.40;30.80;;;;;;5020667;28;20298;-63
2023/04/06 12:07:02;;;;;;;8.48;7.57;;;18.30;31.00;;;;;;5023441;28;20232;-63
2023/04/06 12:09:29;;;;;;;8.13;7.40;;;17.80;31.30;;;;;;5025221;28;20209;-64
2023/04/06 12:11:55;;;;;;;7.60;7.00;;;17.30;31.90;;;;;;5026181;28;20206;-63
2023/04/06 12:14:21;;;;;;;7.30;6.65;;;17.30;32.50;;;;;;5025271;28;20292;-64
2023/04/06 12:16:47;;;;;;;7.40;6.80;;;17.10;32.20;;;;;;5025789;28;20632;-63
2023/04/06 12:19:13;;;;;;;7.53;6.83;;;17.10;32.80;;;;;;5025503;28;20950;-64
2023/04/06 12:21:39;;;;;;;7.20;6.50;;;16.90;32.40;;;;;;5023702;28;20540;-65
2023/04/06 12:24:05;;;;;;;8.73;7.50;;;16.80;32.70;;;;;;5023418;28;20201;-65
2023/04/06 12:26:31;;;;;;;6.70;6.10;;;16.80;32.90;;;;;;5021915;28;20190;-64
2023/04/06 12:29:06;;;;;;;9.68;6.88;;;16.70;33.50;;;;;;5023528;28;20205;-64
2023/04/06 12:31:34;;;;;;;7.82;6.93;;;16.60;33.70;;;;;;5023036;28;21279;-64
2023/04/06 12:33:59;;;;;;;7.28;6.57;;;16.60;32.70;;;;;;5025953;28;20217;-64
2023/04/06 12:36:26;;;;;;;7.80;7.10;;;16.50;32.70;;;;;;5026655;28;20178;-64
2023/04/06 12:38:52;;;;;;;9.63;6.80;;;16.20;32.90;;;;;;5025333;28;20206;-64
2023/04/06 12:41:18;;;;;;;7.40;6.13;;;16.20;34.10;;;;;;5025233;28;20601;-64
2023/04/06 12:43:45;;;;;;;8.10;7.30;;;16.40;34.40;;;;;;5022976;28;20188;-64